sensor_id;sensor_type;location;lat;lon;timestamp;P1;durP1;ratioP1;P2;durP2;ratioP2
20251;SDS011;10284;58.364;15.550;2023-04-03T00:00:51;4.68;;;0.90;;
20251;SDS011;10284;58.364;15.550;2023-04-03T00:03:17;4.63;;;1.10;;
20251;SDS011;10284;58.364;15.550;2023-04-03T00:05:43;3.00;;;1.23;;
20251;SDS011;10284;58.364;15.550;2023-04-03T00:08:09;1.90;;;0.95;;
20251;SDS011;10284;58.364;15.550;2023-04-03T00:10:35;3.33;;;0.75;;
20251;SDS011;10284;58.364;15.550;2023-04-03T00:13:01;2.97;;;1.08;;
20251;SDS011;10284;58.364;15.550;2023-04-03T00:15:28;2.63;;;0.90;;
20251;SDS011;10284;58.364;15.550;2023-04-03T00:17:53;1.92;;;0.90;;
20251;SDS011;10284;58.364;15.550;2023-04-03T00:20:19;4.00;;;1.05;;
20251;SDS011;10284;58.364;15.550;2023-04-03T00:22:44;2.75;;;1.08;;
20251;SDS011;10284;58.364;15.550;2023-04-03T00:25:10;6.05;;;1.02;;
20251;SDS011;10284;58.364;15.550;2023-04-03T00:27:37;3.72;;;0.88;;
20251;SDS011;10284;58.364;15.550;2023-04-03T00:30:04;2.25;;;1.13;;
20251;SDS011;10284;58.364;15.550;2023-04-03T00:32:31;3.15;;;1.13;;
20251;SDS011;10284;58.364;15.550;2023-04-03T00:34:56;5.18;;;1.20;;
20251;SDS011;10284;58.364;15.550;2023-04-03T00:37:22;5.35;;;1.10;;
20251;SDS011;10284;58.364;15.550;2023-04-03T00:39:47;3.88;;;1.00;;
20251;SDS011;10284;58.364;15.550;2023-04-03T00:42:12;3.88;;;1.10;;
20251;SDS011;10284;58.364;15.550;2023-04-03T00:47:04;5.90;;;1.25;;
20251;SDS011;10284;58.364;15.550;2023-04-03T00:49:31;2.67;;;1.00;;
20251;SDS011;10284;58.364;15.550;2023-04-03T00:51:57;4.28;;;1.20;;
20251;SDS011;10284;58.364;15.550;2023-04-03T00:54:23;2.75;;;1.10;;
20251;SDS011;10284;58.364;15.550;2023-04-03T00:56:50;3.92;;;1.13;;
20251;SDS011;10284;58.364;15.550;2023-04-03T00:59:26;6.28;;;0.93;;
20251;SDS011;10284;58.364;15.550;2023-04-03T01:01:55;2.08;;;1.08;;
20251;SDS011;10284;58.364;15.550;2023-04-03T01:06:56;5.35;;;1.15;;
20251;SDS011;10284;58.364;15.550;2023-04-03T01:09:23;1.85;;;0.80;;
20251;SDS011;10284;58.364;15.550;2023-04-03T01:11:49;1.27;;;1.10;;
20251;SDS011;10284;58.364;15.550;2023-04-03T01:14:14;4.80;;;1.27;;
20251;SDS011;10284;58.364;15.550;2023-04-03T01:16:40;3.05;;;1.15;;
20251;SDS011;10284;58.364;15.550;2023-04-03T01:19:06;1.88;;;1.00;;
20251;SDS011;10284;58.364;15.550;2023-04-03T01:26:53;3.80;;;0.90;;
20251;SDS011;10284;58.364;15.550;2023-04-03T01:29:18;8.07;;;1.10;;
20251;SDS011;10284;58.364;15.550;2023-04-03T01:31:51;6.97;;;1.27;;
20251;SDS011;10284;58.364;15.550;2023-04-03T01:34:27;3.20;;;1.50;;
20251;SDS011;10284;58.364;15.550;2023-04-03T01:36:53;2.78;;;0.90;;
20251;SDS011;10284;58.364;15.550;2023-04-03T01:39:18;2.50;;;1.05;;
20251;SDS011;10284;58.364;15.550;2023-04-03T01:41:44;3.95;;;1.10;;
20251;SDS011;10284;58.364;15.550;2023-04-03T01:44:10;4.85;;;1.27;;
20251;SDS011;10284;58.364;15.550;2023-04-03T01:46:36;4.50;;;1.30;;
20251;SDS011;10284;58.364;15.550;2023-04-03T01:49:02;3.35;;;1.10;;
20251;SDS011;10284;58.364;15.550;2023-04-03T01:51:28;4.55;;;1.30;;
20251;SDS011;10284;58.364;15.550;2023-04-03T01:53:54;6.63;;;1.10;;
20251;SDS011;10284;58.364;15.550;2023-04-03T01:56:20;2.05;;;1.00;;
20251;SDS011;10284;58.364;15.550;2023-04-03T01:58:45;2.22;;;1.08;;
20251;SDS011;10284;58.364;15.550;2023-04-03T02:01:10;6.55;;;1.38;;
20251;SDS011;10284;58.364;15.550;2023-04-03T02:03:36;2.03;;;1.10;;
20251;SDS011;10284;58.364;15.550;2023-04-03T02:06:01;5.97;;;1.25;;
20251;SDS011;10284;58.364;15.550;2023-04-03T02:08:27;5.20;;;1.10;;
20251;SDS011;10284;58.364;15.550;2023-04-03T02:10:53;4.63;;;1.25;;
20251;SDS011;10284;58.364;15.550;2023-04-03T02:13:18;1.40;;;1.13;;
20251;SDS011;10284;58.364;15.550;2023-04-03T02:15:44;2.72;;;1.38;;
20251;SDS011;10284;58.364;15.550;2023-04-03T02:18:10;3.28;;;1.15;;
20251;SDS011;10284;58.364;15.550;2023-04-03T02:20:36;5.15;;;1.00;;
20251;SDS011;10284;58.364;15.550;2023-04-03T02:23:01;4.75;;;1.20;;
20251;SDS011;10284;58.364;15.550;2023-04-03T02:25:27;1.88;;;1.00;;
20251;SDS011;10284;58.364;15.550;2023-04-03T02:27:53;1.92;;;1.73;;
20251;SDS011;10284;58.364;15.550;2023-04-03T02:30:18;2.13;;;1.10;;
20251;SDS011;10284;58.364;15.550;2023-04-03T02:32:44;4.93;;;1.05;;
20251;SDS011;10284;58.364;15.550;2023-04-03T02:35:10;5.57;;;1.23;;
20251;SDS011;10284;58.364;15.550;2023-04-03T02:37:36;2.83;;;1.33;;
20251;SDS011;10284;58.364;15.550;2023-04-03T02:40:02;6.47;;;1.15;;
20251;SDS011;10284;58.364;15.550;2023-04-03T02:42:27;3.17;;;1.20;;
20251;SDS011;10284;58.364;15.550;2023-04-03T02:44:53;4.15;;;1.20;;
20251;SDS011;10284;58.364;15.550;2023-04-03T02:47:18;4.60;;;1.30;;
20251;SDS011;10284;58.364;15.550;2023-04-03T02:49:44;3.22;;;1.42;;
20251;SDS011;10284;58.364;15.550;2023-04-03T02:52:10;5.40;;;1.13;;
20251;SDS011;10284;58.364;15.550;2023-04-03T02:54:37;10.27;;;1.48;;
20251;SDS011;10284;58.364;15.550;2023-04-03T02:57:02;3.38;;;1.40;;
20251;SDS011;10284;58.364;15.550;2023-04-03T02:59:28;3.40;;;1.15;;
20251;SDS011;10284;58.364;15.550;2023-04-03T03:01:53;4.15;;;1.27;;
20251;SDS011;10284;58.364;15.550;2023-04-03T03:04:18;4.85;;;1.45;;
20251;SDS011;10284;58.364;15.550;2023-04-03T03:06:44;3.03;;;1.10;;
20251;SDS011;10284;58.364;15.550;2023-04-03T03:09:11;4.97;;;1.30;;
20251;SDS011;10284;58.364;15.550;2023-04-03T03:11:38;5.63;;;1.50;;
20251;SDS011;10284;58.364;15.550;2023-04-03T03:14:03;3.83;;;1.13;;
20251;SDS011;10284;58.364;15.550;2023-04-03T03:16:29;2.40;;;1.17;;
20251;SDS011;10284;58.364;15.550;2023-04-03T03:18:54;3.33;;;1.05;;
20251;SDS011;10284;58.364;15.550;2023-04-03T03:21:20;2.60;;;1.25;;
20251;SDS011;10284;58.364;15.550;2023-04-03T03:23:45;3.60;;;1.45;;
20251;SDS011;10284;58.364;15.550;2023-04-03T03:26:11;3.92;;;1.40;;
20251;SDS011;10284;58.364;15.550;2023-04-03T03:28:37;4.82;;;1.17;;
20251;SDS011;10284;58.364;15.550;2023-04-03T03:31:03;3.63;;;1.75;;
20251;SDS011;10284;58.364;15.550;2023-04-03T03:33:29;2.00;;;1.30;;
20251;SDS011;10284;58.364;15.550;2023-04-03T03:35:55;6.57;;;1.35;;
20251;SDS011;10284;58.364;15.550;2023-04-03T03:38:20;7.07;;;1.50;;
20251;SDS011;10284;58.364;15.550;2023-04-03T03:40:47;5.88;;;1.23;;
20251;SDS011;10284;58.364;15.550;2023-04-03T03:43:13;5.20;;;1.17;;
20251;SDS011;10284;58.364;15.550;2023-04-03T03:45:39;2.20;;;1.50;;
20251;SDS011;10284;58.364;15.550;2023-04-03T03:48:05;6.78;;;1.15;;
20251;SDS011;10284;58.364;15.550;2023-04-03T03:50:30;3.90;;;1.42;;
20251;SDS011;10284;58.364;15.550;2023-04-03T03:52:55;2.30;;;1.25;;
20251;SDS011;10284;58.364;15.550;2023-04-03T03:55:21;4.07;;;1.23;;
20251;SDS011;10284;58.364;15.550;2023-04-03T03:57:46;3.20;;;1.10;;
20251;SDS011;10284;58.364;15.550;2023-04-03T04:00:12;3.60;;;1.40;;
20251;SDS011;10284;58.364;15.550;2023-04-03T04:02:38;4.45;;;1.50;;
20251;SDS011;10284;58.364;15.550;2023-04-03T04:05:04;4.47;;;1.42;;
20251;SDS011;10284;58.364;15.550;2023-04-03T04:07:29;5.53;;;1.30;;
20251;SDS011;10284;58.364;15.550;2023-04-03T04:09:55;4.32;;;1.02;;
20251;SDS011;10284;58.364;15.550;2023-04-03T04:12:20;3.08;;;1.27;;
20251;SDS011;10284;58.364;15.550;2023-04-03T04:14:46;6.80;;;1.50;;
20251;SDS011;10284;58.364;15.550;2023-04-03T04:17:15;7.60;;;1.40;;
20251;SDS011;10284;58.364;15.550;2023-04-03T04:19:40;4.47;;;1.27;;
20251;SDS011;10284;58.364;15.550;2023-04-03T04:22:06;4.53;;;1.20;;
20251;SDS011;10284;58.364;15.550;2023-04-03T04:24:31;5.20;;;1.30;;
20251;SDS011;10284;58.364;15.550;2023-04-03T04:26:57;6.93;;;1.33;;
20251;SDS011;10284;58.364;15.550;2023-04-03T04:29:22;4.72;;;1.20;;
20251;SDS011;10284;58.364;15.550;2023-04-03T04:31:48;2.55;;;1.27;;
20251;SDS011;10284;58.364;15.550;2023-04-03T04:34:13;3.42;;;1.58;;
20251;SDS011;10284;58.364;15.550;2023-04-03T04:36:39;7.43;;;1.83;;
20251;SDS011;10284;58.364;15.550;2023-04-03T04:39:04;4.18;;;1.30;;
20251;SDS011;10284;58.364;15.550;2023-04-03T04:41:30;2.95;;;1.20;;
20251;SDS011;10284;58.364;15.550;2023-04-03T04:43:56;2.92;;;1.33;;
20251;SDS011;10284;58.364;15.550;2023-04-03T04:46:22;8.02;;;1.70;;
20251;SDS011;10284;58.364;15.550;2023-04-03T04:48:48;4.35;;;1.40;;
20251;SDS011;10284;58.364;15.550;2023-04-03T04:51:13;3.05;;;1.30;;
20251;SDS011;10284;58.364;15.550;2023-04-03T04:53:39;11.90;;;1.48;;
20251;SDS011;10284;58.364;15.550;2023-04-03T04:56:05;3.10;;;1.30;;
20251;SDS011;10284;58.364;15.550;2023-04-03T04:58:31;5.65;;;1.30;;
20251;SDS011;10284;58.364;15.550;2023-04-03T05:01:00;5.93;;;1.77;;
20251;SDS011;10284;58.364;15.550;2023-04-03T05:03:32;4.15;;;1.10;;
20251;SDS011;10284;58.364;15.550;2023-04-03T05:05:58;6.15;;;1.40;;
20251;SDS011;10284;58.364;15.550;2023-04-03T05:08:24;6.68;;;1.48;;
20251;SDS011;10284;58.364;15.550;2023-04-03T05:10:49;9.63;;;1.98;;
20251;SDS011;10284;58.364;15.550;2023-04-03T05:13:15;3.70;;;1.13;;
20251;SDS011;10284;58.364;15.550;2023-04-03T05:15:40;4.40;;;1.42;;
20251;SDS011;10284;58.364;15.550;2023-04-03T05:18:06;6.43;;;1.40;;
20251;SDS011;10284;58.364;15.550;2023-04-03T05:20:32;2.50;;;1.50;;
20251;SDS011;10284;58.364;15.550;2023-04-03T05:22:58;6.18;;;1.55;;
20251;SDS011;10284;58.364;15.550;2023-04-03T05:25:23;4.28;;;1.20;;
20251;SDS011;10284;58.364;15.550;2023-04-03T05:27:49;3.88;;;1.45;;
20251;SDS011;10284;58.364;15.550;2023-04-03T05:30:15;6.32;;;1.65;;
20251;SDS011;10284;58.364;15.550;2023-04-03T05:32:40;4.75;;;1.15;;
20251;SDS011;10284;58.364;15.550;2023-04-03T05:35:06;5.13;;;1.75;;
20251;SDS011;10284;58.364;15.550;2023-04-03T05:37:32;5.10;;;1.55;;
20251;SDS011;10284;58.364;15.550;2023-04-03T05:39:58;5.20;;;1.75;;
20251;SDS011;10284;58.364;15.550;2023-04-03T05:42:24;4.38;;;1.30;;
20251;SDS011;10284;58.364;15.550;2023-04-03T05:44:49;3.58;;;1.15;;
20251;SDS011;10284;58.364;15.550;2023-04-03T05:47:15;7.32;;;1.48;;
20251;SDS011;10284;58.364;15.550;2023-04-03T05:49:41;5.28;;;1.95;;
20251;SDS011;10284;58.364;15.550;2023-04-03T05:54:52;3.33;;;1.52;;
20251;SDS011;10284;58.364;15.550;2023-04-03T05:57:17;4.13;;;1.45;;
20251;SDS011;10284;58.364;15.550;2023-04-03T05:59:43;4.78;;;1.85;;
20251;SDS011;10284;58.364;15.550;2023-04-03T06:02:11;4.97;;;1.77;;
20251;SDS011;10284;58.364;15.550;2023-04-03T06:04:38;4.22;;;1.60;;
20251;SDS011;10284;58.364;15.550;2023-04-03T06:07:04;4.30;;;1.40;;
20251;SDS011;10284;58.364;15.550;2023-04-03T06:09:29;8.15;;;1.58;;
20251;SDS011;10284;58.364;15.550;2023-04-03T06:11:55;5.70;;;1.13;;
20251;SDS011;10284;58.364;15.550;2023-04-03T06:14:23;4.80;;;1.30;;
20251;SDS011;10284;58.364;15.550;2023-04-03T06:16:49;5.72;;;1.58;;
20251;SDS011;10284;58.364;15.550;2023-04-03T06:19:14;6.25;;;1.60;;
20251;SDS011;10284;58.364;15.550;2023-04-03T06:21:40;5.53;;;1.52;;
20251;SDS011;10284;58.364;15.550;2023-04-03T06:24:06;4.85;;;1.50;;
20251;SDS011;10284;58.364;15.550;2023-04-03T06:26:32;4.63;;;1.55;;
20251;SDS011;10284;58.364;15.550;2023-04-03T06:28:58;4.93;;;1.30;;
20251;SDS011;10284;58.364;15.550;2023-04-03T06:31:24;4.70;;;1.60;;
20251;SDS011;10284;58.364;15.550;2023-04-03T06:33:50;6.53;;;1.35;;
20251;SDS011;10284;58.364;15.550;2023-04-03T06:36:15;4.43;;;1.33;;
20251;SDS011;10284;58.364;15.550;2023-04-03T06:38:44;6.82;;;1.30;;
20251;SDS011;10284;58.364;15.550;2023-04-03T06:41:10;4.55;;;1.40;;
20251;SDS011;10284;58.364;15.550;2023-04-03T06:43:36;5.50;;;1.70;;
20251;SDS011;10284;58.364;15.550;2023-04-03T06:46:01;8.98;;;1.45;;
20251;SDS011;10284;58.364;15.550;2023-04-03T06:48:27;8.20;;;1.92;;
20251;SDS011;10284;58.364;15.550;2023-04-03T06:50:52;7.50;;;1.90;;
20251;SDS011;10284;58.364;15.550;2023-04-03T06:53:18;7.63;;;1.60;;
20251;SDS011;10284;58.364;15.550;2023-04-03T06:55:43;5.78;;;1.42;;
20251;SDS011;10284;58.364;15.550;2023-04-03T06:58:10;3.72;;;1.60;;
20251;SDS011;10284;58.364;15.550;2023-04-03T07:00:35;9.27;;;1.40;;
20251;SDS011;10284;58.364;15.550;2023-04-03T07:03:01;6.78;;;1.58;;
20251;SDS011;10284;58.364;15.550;2023-04-03T07:05:26;6.18;;;1.42;;
20251;SDS011;10284;58.364;15.550;2023-04-03T07:07:52;10.45;;;1.88;;
20251;SDS011;10284;58.364;15.550;2023-04-03T07:10:18;11.70;;;1.75;;
20251;SDS011;10284;58.364;15.550;2023-04-03T07:12:43;5.28;;;1.20;;
20251;SDS011;10284;58.364;15.550;2023-04-03T07:15:10;6.50;;;1.33;;
20251;SDS011;10284;58.364;15.550;2023-04-03T07:17:36;6.43;;;1.65;;
20251;SDS011;10284;58.364;15.550;2023-04-03T07:20:02;7.22;;;1.25;;
20251;SDS011;10284;58.364;15.550;2023-04-03T07:22:28;7.10;;;1.27;;
20251;SDS011;10284;58.364;15.550;2023-04-03T07:24:54;4.53;;;1.42;;
20251;SDS011;10284;58.364;15.550;2023-04-03T07:27:20;6.85;;;2.05;;
20251;SDS011;10284;58.364;15.550;2023-04-03T07:29:45;5.57;;;1.70;;
20251;SDS011;10284;58.364;15.550;2023-04-03T07:32:13;7.25;;;1.80;;
20251;SDS011;10284;58.364;15.550;2023-04-03T07:34:38;11.00;;;1.60;;
20251;SDS011;10284;58.364;15.550;2023-04-03T07:37:04;7.40;;;1.63;;
20251;SDS011;10284;58.364;15.550;2023-04-03T07:39:29;6.63;;;1.60;;
20251;SDS011;10284;58.364;15.550;2023-04-03T07:41:55;5.50;;;1.40;;
20251;SDS011;10284;58.364;15.550;2023-04-03T07:44:21;2.63;;;1.65;;
20251;SDS011;10284;58.364;15.550;2023-04-03T07:46:46;6.53;;;1.10;;
20251;SDS011;10284;58.364;15.550;2023-04-03T07:49:13;7.60;;;2.08;;
20251;SDS011;10284;58.364;15.550;2023-04-03T07:51:39;5.18;;;1.60;;
20251;SDS011;10284;58.364;15.550;2023-04-03T07:54:04;10.27;;;1.58;;
20251;SDS011;10284;58.364;15.550;2023-04-03T07:56:30;6.15;;;1.70;;
20251;SDS011;10284;58.364;15.550;2023-04-03T07:58:56;4.85;;;1.30;;
20251;SDS011;10284;58.364;15.550;2023-04-03T08:01:22;5.57;;;1.50;;
20251;SDS011;10284;58.364;15.550;2023-04-03T08:03:47;4.88;;;1.58;;
20251;SDS011;10284;58.364;15.550;2023-04-03T08:06:13;9.68;;;1.75;;
20251;SDS011;10284;58.364;15.550;2023-04-03T08:08:40;8.90;;;2.10;;
20251;SDS011;10284;58.364;15.550;2023-04-03T08:11:05;6.03;;;1.50;;
20251;SDS011;10284;58.364;15.550;2023-04-03T08:13:33;4.63;;;1.45;;
20251;SDS011;10284;58.364;15.550;2023-04-03T08:16:10;12.02;;;1.77;;
20251;SDS011;10284;58.364;15.550;2023-04-03T08:18:37;6.57;;;1.52;;
20251;SDS011;10284;58.364;15.550;2023-04-03T08:21:10;9.25;;;1.52;;
20251;SDS011;10284;58.364;15.550;2023-04-03T08:23:37;5.95;;;1.48;;
20251;SDS011;10284;58.364;15.550;2023-04-03T08:26:06;6.40;;;1.48;;
20251;SDS011;10284;58.364;15.550;2023-04-03T08:28:33;6.45;;;1.65;;
20251;SDS011;10284;58.364;15.550;2023-04-03T08:31:01;5.47;;;1.70;;
20251;SDS011;10284;58.364;15.550;2023-04-03T08:33:29;3.65;;;1.48;;
20251;SDS011;10284;58.364;15.550;2023-04-03T08:35:55;3.35;;;0.98;;
20251;SDS011;10284;58.364;15.550;2023-04-03T08:38:21;3.70;;;1.30;;
20251;SDS011;10284;58.364;15.550;2023-04-03T08:40:46;8.55;;;1.45;;
20251;SDS011;10284;58.364;15.550;2023-04-03T08:43:34;7.18;;;1.65;;
20251;SDS011;10284;58.364;15.550;2023-04-03T08:46:08;4.45;;;1.50;;
20251;SDS011;10284;58.364;15.550;2023-04-03T08:48:39;3.88;;;1.42;;
20251;SDS011;10284;58.364;15.550;2023-04-03T08:51:14;10.98;;;1.85;;
20251;SDS011;10284;58.364;15.550;2023-04-03T08:53:42;6.80;;;1.53;;
20251;SDS011;10284;58.364;15.550;2023-04-03T08:56:10;5.22;;;1.60;;
20251;SDS011;10284;58.364;15.550;2023-04-03T08:58:42;7.10;;;1.27;;
20251;SDS011;10284;58.364;15.550;2023-04-03T09:03:57;5.28;;;1.33;;
20251;SDS011;10284;58.364;15.550;2023-04-03T09:06:26;3.92;;;1.17;;
20251;SDS011;10284;58.364;15.550;2023-04-03T09:24:44;2.85;;;1.40;;
20251;SDS011;10284;58.364;15.550;2023-04-03T09:27:11;4.13;;;1.52;;
20251;SDS011;10284;58.364;15.550;2023-04-03T09:29:39;7.10;;;1.65;;
20251;SDS011;10284;58.364;15.550;2023-04-03T09:34:57;7.35;;;1.60;;
20251;SDS011;10284;58.364;15.550;2023-04-03T09:37:41;2.75;;;1.10;;
20251;SDS011;10284;58.364;15.550;2023-04-03T09:42:53;9.23;;;1.60;;
20251;SDS011;10284;58.364;15.550;2023-04-03T09:45:33;4.72;;;1.35;;
20251;SDS011;10284;58.364;15.550;2023-04-03T09:50:37;6.00;;;1.65;;
20251;SDS011;10284;58.364;15.550;2023-04-03T09:53:05;3.03;;;1.15;;
20251;SDS011;10284;58.364;15.550;2023-04-03T09:55:32;5.22;;;1.30;;
20251;SDS011;10284;58.364;15.550;2023-04-03T09:58:04;4.38;;;1.23;;
20251;SDS011;10284;58.364;15.550;2023-04-03T10:02:59;2.42;;;1.40;;
20251;SDS011;10284;58.364;15.550;2023-04-03T10:05:27;4.50;;;1.27;;
20251;SDS011;10284;58.364;15.550;2023-04-03T10:10:41;4.30;;;1.13;;
20251;SDS011;10284;58.364;15.550;2023-04-03T10:13:14;3.30;;;1.20;;
20251;SDS011;10284;58.364;15.550;2023-04-03T10:15:47;5.03;;;1.00;;
20251;SDS011;10284;58.364;15.550;2023-04-03T10:18:44;3.23;;;1.00;;
20251;SDS011;10284;58.364;15.550;2023-04-03T10:21:29;5.43;;;1.10;;
20251;SDS011;10284;58.364;15.550;2023-04-03T10:24:25;4.60;;;1.15;;
20251;SDS011;10284;58.364;15.550;2023-04-03T10:27:09;4.38;;;0.90;;
20251;SDS011;10284;58.364;15.550;2023-04-03T10:35:07;1.60;;;1.00;;
20251;SDS011;10284;58.364;15.550;2023-04-03T10:40:47;2.70;;;0.90;;
20251;SDS011;10284;58.364;15.550;2023-04-03T10:43:10;3.83;;;1.33;;
20251;SDS011;10284;58.364;15.550;2023-04-03T10:48:40;4.50;;;1.20;;
20251;SDS011;10284;58.364;15.550;2023-04-03T10:54:18;6.50;;;1.20;;
20251;SDS011;10284;58.364;15.550;2023-04-03T10:56:50;4.95;;;1.23;;
20251;SDS011;10284;58.364;15.550;2023-04-03T10:59:25;2.33;;;1.08;;
20251;SDS011;10284;58.364;15.550;2023-04-03T11:02:06;4.47;;;1.30;;
20251;SDS011;10284;58.364;15.550;2023-04-03T11:04:34;6.00;;;1.30;;
20251;SDS011;10284;58.364;15.550;2023-04-03T11:07:10;5.47;;;0.82;;
20251;SDS011;10284;58.364;15.550;2023-04-03T11:09:43;1.52;;;0.82;;
20251;SDS011;10284;58.364;15.550;2023-04-03T11:12:11;2.70;;;0.93;;
20251;SDS011;10284;58.364;15.550;2023-04-03T11:14:40;4.30;;;0.85;;
20251;SDS011;10284;58.364;15.550;2023-04-03T11:17:20;1.27;;;0.80;;
20251;SDS011;10284;58.364;15.550;2023-04-03T11:20:03;2.70;;;0.90;;
20251;SDS011;10284;58.364;15.550;2023-04-03T11:22:41;3.65;;;1.00;;
20251;SDS011;10284;58.364;15.550;2023-04-03T11:28:09;3.85;;;1.10;;
20251;SDS011;10284;58.364;15.550;2023-04-03T11:33:17;3.00;;;0.93;;
20251;SDS011;10284;58.364;15.550;2023-04-03T11:35:52;2.15;;;0.80;;
20251;SDS011;10284;58.364;15.550;2023-04-03T11:38:28;1.55;;;1.15;;
20251;SDS011;10284;58.364;15.550;2023-04-03T11:41:06;4.20;;;0.90;;
20251;SDS011;10284;58.364;15.550;2023-04-03T11:43:32;3.58;;;1.08;;
20251;SDS011;10284;58.364;15.550;2023-04-03T11:46:02;2.92;;;0.73;;
20251;SDS011;10284;58.364;15.550;2023-04-03T11:50:57;1.67;;;0.95;;
20251;SDS011;10284;58.364;15.550;2023-04-03T11:55:56;2.17;;;0.90;;
20251;SDS011;10284;58.364;15.550;2023-04-03T11:58:24;3.38;;;1.05;;
20251;SDS011;10284;58.364;15.550;2023-04-03T12:01:00;4.47;;;1.05;;
20251;SDS011;10284;58.364;15.550;2023-04-03T12:03:31;2.83;;;0.90;;
20251;SDS011;10284;58.364;15.550;2023-04-03T12:06:41;2.28;;;0.77;;
20251;SDS011;10284;58.364;15.550;2023-04-03T12:08:46;4.18;;;1.00;;
20251;SDS011;10284;58.364;15.550;2023-04-03T12:16:54;1.95;;;0.80;;
20251;SDS011;10284;58.364;15.550;2023-04-03T12:19:03;3.75;;;0.80;;
20251;SDS011;10284;58.364;15.550;2023-04-03T12:24:02;5.70;;;0.90;;
20251;SDS011;10284;58.364;15.550;2023-04-03T12:34:55;2.30;;;0.70;;
20251;SDS011;10284;58.364;15.550;2023-04-03T12:43:11;3.97;;;1.02;;
20251;SDS011;10284;58.364;15.550;2023-04-03T12:45:46;3.88;;;0.98;;
20251;SDS011;10284;58.364;15.550;2023-04-03T12:48:16;3.97;;;1.10;;
20251;SDS011;10284;58.364;15.550;2023-04-03T12:50:45;2.60;;;0.80;;
20251;SDS011;10284;58.364;15.550;2023-04-03T12:53:18;3.88;;;0.90;;
20251;SDS011;10284;58.364;15.550;2023-04-03T12:55:45;2.67;;;0.88;;
20251;SDS011;10284;58.364;15.550;2023-04-03T12:58:20;3.20;;;0.60;;
20251;SDS011;10284;58.364;15.550;2023-04-03T13:00:58;3.70;;;0.95;;
20251;SDS011;10284;58.364;15.550;2023-04-03T13:03:28;3.38;;;1.10;;
20251;SDS011;10284;58.364;15.550;2023-04-03T13:05:59;4.38;;;1.17;;
20251;SDS011;10284;58.364;15.550;2023-04-03T13:08:26;2.80;;;0.93;;
20251;SDS011;10284;58.364;15.550;2023-04-03T13:13:28;2.17;;;0.93;;
20251;SDS011;10284;58.364;15.550;2023-04-03T13:15:54;5.90;;;1.00;;
20251;SDS011;10284;58.364;15.550;2023-04-03T13:18:28;1.33;;;0.93;;
20251;SDS011;10284;58.364;15.550;2023-04-03T13:21:08;2.20;;;0.80;;
20251;SDS011;10284;58.364;15.550;2023-04-03T13:23:40;3.70;;;0.95;;
20251;SDS011;10284;58.364;15.550;2023-04-03T13:26:08;2.15;;;0.98;;
20251;SDS011;10284;58.364;15.550;2023-04-03T13:28:34;2.95;;;1.00;;
20251;SDS011;10284;58.364;15.550;2023-04-03T13:33:32;2.70;;;1.00;;
20251;SDS011;10284;58.364;15.550;2023-04-03T13:36:22;3.85;;;1.00;;
20251;SDS011;10284;58.364;15.550;2023-04-03T13:39:55;1.80;;;1.10;;
20251;SDS011;10284;58.364;15.550;2023-04-03T13:41:45;5.50;;;1.67;;
20251;SDS011;10284;58.364;15.550;2023-04-03T13:44:32;3.88;;;1.50;;
20251;SDS011;10284;58.364;15.550;2023-04-03T13:47:14;3.72;;;1.10;;
20251;SDS011;10284;58.364;15.550;2023-04-03T13:49:45;4.85;;;0.95;;
20251;SDS011;10284;58.364;15.550;2023-04-03T13:54:47;3.33;;;1.20;;
20251;SDS011;10284;58.364;15.550;2023-04-03T13:57:17;2.22;;;1.10;;
20251;SDS011;10284;58.364;15.550;2023-04-03T13:59:43;1.70;;;0.90;;
20251;SDS011;10284;58.364;15.550;2023-04-03T14:04:57;2.95;;;1.30;;
20251;SDS011;10284;58.364;15.550;2023-04-03T14:07:26;1.98;;;1.23;;
20251;SDS011;10284;58.364;15.550;2023-04-03T14:09:53;1.33;;;0.90;;
20251;SDS011;10284;58.364;15.550;2023-04-03T14:12:39;6.97;;;1.33;;
20251;SDS011;10284;58.364;15.550;2023-04-03T14:15:28;2.65;;;0.90;;
20251;SDS011;10284;58.364;15.550;2023-04-03T14:17:53;4.22;;;1.10;;
20251;SDS011;10284;58.364;15.550;2023-04-03T14:20:21;2.88;;;1.20;;
20251;SDS011;10284;58.364;15.550;2023-04-03T14:22:48;5.70;;;1.08;;
20251;SDS011;10284;58.364;15.550;2023-04-03T14:25:14;3.20;;;0.90;;
20251;SDS011;10284;58.364;15.550;2023-04-03T14:27:42;5.28;;;1.10;;
20251;SDS011;10284;58.364;15.550;2023-04-03T14:30:12;3.83;;;0.93;;
20251;SDS011;10284;58.364;15.550;2023-04-03T14:32:41;1.30;;;0.90;;
20251;SDS011;10284;58.364;15.550;2023-04-03T14:35:07;3.47;;;1.17;;
20251;SDS011;10284;58.364;15.550;2023-04-03T14:37:32;2.75;;;1.00;;
20251;SDS011;10284;58.364;15.550;2023-04-03T14:39:59;3.15;;;0.77;;
20251;SDS011;10284;58.364;15.550;2023-04-03T14:42:27;2.45;;;1.10;;
20251;SDS011;10284;58.364;15.550;2023-04-03T14:44:56;4.63;;;0.90;;
20251;SDS011;10284;58.364;15.550;2023-04-03T14:47:23;4.13;;;0.90;;
20251;SDS011;10284;58.364;15.550;2023-04-03T14:49:50;2.00;;;0.80;;
20251;SDS011;10284;58.364;15.550;2023-04-03T14:52:17;2.42;;;0.80;;
20251;SDS011;10284;58.364;15.550;2023-04-03T14:54:46;2.25;;;0.85;;
20251;SDS011;10284;58.364;15.550;2023-04-03T14:57:13;1.30;;;0.93;;
20251;SDS011;10284;58.364;15.550;2023-04-03T14:59:39;4.38;;;0.90;;
20251;SDS011;10284;58.364;15.550;2023-04-03T15:02:22;1.08;;;0.82;;
20251;SDS011;10284;58.364;15.550;2023-04-03T15:04:56;2.38;;;0.90;;
20251;SDS011;10284;58.364;15.550;2023-04-03T15:07:23;2.08;;;0.80;;
20251;SDS011;10284;58.364;15.550;2023-04-03T15:09:49;1.58;;;1.45;;
20251;SDS011;10284;58.364;15.550;2023-04-03T15:12:15;1.60;;;0.70;;
20251;SDS011;10284;58.364;15.550;2023-04-03T15:14:40;3.08;;;1.25;;
20251;SDS011;10284;58.364;15.550;2023-04-03T15:17:06;2.53;;;0.98;;
20251;SDS011;10284;58.364;15.550;2023-04-03T15:19:36;3.78;;;1.15;;
20251;SDS011;10284;58.364;15.550;2023-04-03T15:22:02;1.35;;;0.88;;
20251;SDS011;10284;58.364;15.550;2023-04-03T15:24:28;1.48;;;0.80;;
20251;SDS011;10284;58.364;15.550;2023-04-03T15:26:53;1.95;;;0.90;;
20251;SDS011;10284;58.364;15.550;2023-04-03T15:29:19;4.68;;;1.00;;
20251;SDS011;10284;58.364;15.550;2023-04-03T15:31:44;1.77;;;0.70;;
20251;SDS011;10284;58.364;15.550;2023-04-03T15:34:10;1.45;;;0.65;;
20251;SDS011;10284;58.364;15.550;2023-04-03T15:36:35;2.05;;;0.70;;
20251;SDS011;10284;58.364;15.550;2023-04-03T15:39:01;2.65;;;0.90;;
20251;SDS011;10284;58.364;15.550;2023-04-03T15:41:26;2.05;;;0.88;;
20251;SDS011;10284;58.364;15.550;2023-04-03T15:43:52;1.25;;;0.80;;
20251;SDS011;10284;58.364;15.550;2023-04-03T15:46:17;2.55;;;0.70;;
20251;SDS011;10284;58.364;15.550;2023-04-03T15:48:42;2.15;;;0.80;;
20251;SDS011;10284;58.364;15.550;2023-04-03T15:51:09;1.67;;;0.60;;
20251;SDS011;10284;58.364;15.550;2023-04-03T15:53:35;0.90;;;0.90;;
20251;SDS011;10284;58.364;15.550;2023-04-03T15:56:00;1.42;;;0.90;;
20251;SDS011;10284;58.364;15.550;2023-04-03T15:58:26;1.38;;;0.82;;
20251;SDS011;10284;58.364;15.550;2023-04-03T16:00:51;1.42;;;0.80;;
20251;SDS011;10284;58.364;15.550;2023-04-03T16:03:18;1.80;;;0.82;;
20251;SDS011;10284;58.364;15.550;2023-04-03T16:05:44;2.08;;;0.70;;
20251;SDS011;10284;58.364;15.550;2023-04-03T16:08:10;1.65;;;0.95;;
20251;SDS011;10284;58.364;15.550;2023-04-03T16:10:36;2.10;;;0.90;;
20251;SDS011;10284;58.364;15.550;2023-04-03T16:13:02;1.70;;;1.10;;
20251;SDS011;10284;58.364;15.550;2023-04-03T16:15:29;2.67;;;1.50;;
20251;SDS011;10284;58.364;15.550;2023-04-03T16:17:55;3.05;;;1.77;;
20251;SDS011;10284;58.364;15.550;2023-04-03T16:20:21;3.83;;;1.48;;